KALB/ALB METAR and TAF weather

Enter ICAO airport designator
Station Type Date Time Source
KALB METAR 2020/07/02 18:51 UTC NOAA

KALB 021851Z 00000KT 10SM FEW070 FEW130 FEW200 33/19 A2978 RMK AO2 SLP081 T03280189


Station Type Date Time Source
KALB Decoded METAR 2020/07/02 18:51 UTC NOAA

ALBANY INTERNATIONAL AIRPORT, NY, United States (KALB) 42-45N 73-48W
Jul 02, 2020 - 02:51 PM EDT / 2020.07.02 1851 UTC
Wind: Calm:0
Visibility: 10 mile(s):0
Sky conditions: mostly clear
Temperature: 91.0 F (32.8 C)
Dew Point: 66.0 F (18.9 C)
Relative Humidity: 43%
Pressure (altimeter): 29.78 in. Hg (1008 hPa)
ob: KALB 021851Z 00000KT 10SM FEW070 FEW130 FEW200 33/19 A2978 RMK AO2 SLP081 T03280189
cycle: 19

Station Type Date Time Source
KALB TAF 2020/07/02 18:42 UTC NOAA

TAF KALB 021739Z 0218/0318 00000KT P6SM FEW040 SCT100 SCT200
FM022000 21003KT P6SM VCSH BKN150
FM031000 35003KT P6SM SCT015 OVC025
FM031500 01004KT P6SM BKN050

Example: see airport list